Time;durP1;ratioP1;P1;durP2;ratioP2;P2;SDS_P1;SDS_P2;PMS_P1;PMS_P2;Temp;Humidity;BMP_temperature;BMP_pressure;BME280_temperature;BME280_humidity;BME280_pressure;Samples;Min_cycle;Max_cycle;Signal;HPM_P1;HPM_P2
2023/01/13 00:02:16;;;;;;;8.57;8.27;;;11.70;99.90;;;;;;4903068;29;20790;-74
2023/01/13 00:04:42;;;;;;;10.10;9.50;;;11.80;99.90;;;;;;4904223;29;20959;-75
2023/01/13 00:07:09;;;;;;;11.13;10.57;;;11.80;99.90;;;;;;4904924;29;20459;-75
2023/01/13 00:09:37;;;;;;;10.80;10.10;;;11.80;99.90;;;;;;4904953;29;20482;-74
2023/01/13 00:12:05;;;;;;;11.20;10.33;;;11.80;99.90;;;;;;4903697;29;20455;-74
2023/01/13 00:14:34;;;;;;;9.53;9.00;;;11.80;99.90;;;;;;4902333;29;20499;-75
2023/01/13 00:17:00;;;;;;;9.40;9.10;;;11.80;99.90;;;;;;4903938;29;20446;-75
2023/01/13 00:19:27;;;;;;;9.97;9.57;;;11.80;99.90;;;;;;4904100;29;20943;-74
2023/01/13 00:21:54;;;;;;;10.03;9.63;;;11.80;99.90;;;;;;4902628;29;20451;-75
2023/01/13 00:24:20;;;;;;;10.67;10.30;;;11.90;99.90;;;;;;4903586;29;20454;-74
2023/01/13 00:26:49;;;;;;;8.70;8.40;;;11.90;99.90;;;;;;4903797;29;20458;-74
2023/01/13 00:29:15;;;;;;;9.97;9.47;;;11.90;99.90;;;;;;4904526;29;20446;-74
2023/01/13 00:31:42;;;;;;;10.70;9.97;;;11.90;99.90;;;;;;4903508;29;20455;-75
2023/01/13 00:34:09;;;;;;;9.23;8.93;;;11.80;99.90;;;;;;4902427;29;20482;-75
2023/01/13 00:36:35;;;;;;;10.63;10.03;;;11.80;99.90;;;;;;4902306;29;20478;-74
2023/01/13 00:39:03;;;;;;;10.00;9.20;;;11.90;99.90;;;;;;4902991;29;20461;-75
2023/01/13 00:43:21;;;;;;;9.80;9.40;;;11.80;99.90;;;;;;4904504;29;20819;-74
2023/01/13 00:44:17;;;;;;;9.90;9.50;;;11.90;99.90;;;;;;4902730;29;20495;-74
2023/01/13 00:46:44;;;;;;;9.10;8.80;;;11.90;99.90;;;;;;4903290;29;20451;-76
2023/01/13 00:49:10;;;;;;;8.77;8.27;;;11.80;99.90;;;;;;4904113;29;20458;-75
2023/01/13 00:51:37;;;;;;;9.33;8.97;;;11.80;99.90;;;;;;4902010;29;20466;-74
2023/01/13 00:54:04;;;;;;;9.50;9.20;;;11.80;99.90;;;;;;4902900;29;20493;-74
2023/01/13 00:56:30;;;;;;;9.13;8.83;;;11.80;99.90;;;;;;4903891;29;20462;-74
2023/01/13 00:58:57;;;;;;;9.40;9.10;;;11.80;99.90;;;;;;4902596;29;20459;-75
2023/01/13 01:01:26;;;;;;;9.23;8.93;;;11.70;99.90;;;;;;4902928;29;21211;-74
2023/01/13 01:03:54;;;;;;;9.10;8.70;;;11.70;99.90;;;;;;4903820;29;20473;-75
2023/01/13 01:06:23;;;;;;;11.13;10.67;;;11.70;99.90;;;;;;4902349;29;20478;-74
2023/01/13 01:08:50;;;;;;;9.63;9.23;;;11.90;99.90;;;;;;4901748;29;20462;-74
2023/01/13 01:11:19;;;;;;;9.37;9.07;;;11.80;99.90;;;;;;4901751;29;20456;-74
2023/01/13 01:13:46;;;;;;;10.13;9.83;;;11.80;99.90;;;;;;4901953;29;20573;-75
2023/01/13 01:16:15;;;;;;;10.20;9.60;;;11.80;99.90;;;;;;4903776;29;20450;-73
2023/01/13 01:18:44;;;;;;;9.90;9.50;;;11.80;99.90;;;;;;4902652;29;20466;-73
2023/01/13 01:21:12;;;;;;;9.83;9.43;;;11.90;99.90;;;;;;4901733;29;20490;-75
2023/01/13 01:23:39;;;;;;;10.00;9.50;;;;;;;;;;4903123;29;20464;-73
2023/01/13 01:26:08;;;;;;;9.07;8.77;;;12.00;99.90;;;;;;4902638;29;21025;-74
2023/01/13 01:28:35;;;;;;;10.00;9.70;;;12.00;99.90;;;;;;4901319;29;20477;-75
2023/01/13 01:31:06;;;;;;;12.40;11.93;;;12.00;99.90;;;;;;4902654;29;20558;-74
2023/01/13 01:33:33;;;;;;;10.23;9.83;;;12.10;99.90;;;;;;4903674;29;20988;-74
2023/01/13 01:36:02;;;;;;;10.10;9.60;;;12.10;99.90;;;;;;4902583;29;20523;-74
2023/01/13 01:38:29;;;;;;;9.77;9.37;;;12.10;99.90;;;;;;4901688;29;20446;-74
2023/01/13 01:40:55;;;;;;;9.20;8.90;;;12.10;99.90;;;;;;4903148;29;20469;-74
2023/01/13 01:43:58;;;;;;;10.83;9.80;;;12.10;99.90;;;;;;4902204;29;20451;-73
2023/01/13 01:46:26;;;;;;;9.70;9.30;;;12.00;99.90;;;;;;4901212;29;20442;-73
2023/01/13 01:48:56;;;;;;;9.93;9.63;;;12.00;99.90;;;;;;4903400;29;20541;-74
2023/01/13 01:51:24;;;;;;;10.07;9.77;;;12.00;99.90;;;;;;4902195;29;20522;-74
2023/01/13 01:53:52;;;;;;;9.70;9.30;;;12.00;99.90;;;;;;4901030;29;20499;-74
2023/01/13 01:56:20;;;;;;;9.67;9.37;;;12.00;99.90;;;;;;4902473;29;20454;-73
2023/01/13 01:58:50;;;;;;;10.80;10.20;;;12.10;99.90;;;;;;4902244;29;20462;-73
2023/01/13 02:01:17;;;;;;;10.53;9.93;;;12.10;99.90;;;;;;4901030;29;20926;-73
2023/01/13 02:03:50;;;;;;;9.07;8.80;;;12.10;99.90;;;;;;4901531;29;20478;-73
2023/01/13 02:06:17;;;;;;;9.73;9.33;;;12.10;99.90;;;;;;4901073;29;20451;-74
2023/01/13 02:08:46;;;;;;;9.13;8.73;;;12.10;99.90;;;;;;4901949;29;20506;-75
2023/01/13 02:14:08;;;;;;;9.97;9.60;;;12.00;99.90;;;;;;4901436;29;20483;-76
2023/01/13 02:16:39;;;;;;;9.67;9.07;;;12.00;99.90;;;;;;4900389;29;20455;-76
2023/01/13 02:19:15;;;;;;;9.77;9.37;;;12.10;99.90;;;;;;4901138;29;21212;-75
2023/01/13 02:22:15;;;;;;;10.40;10.00;;;12.10;99.90;;;;;;4901541;29;20458;-74
2023/01/13 02:25:10;;;;;;;9.47;9.17;;;12.20;99.90;;;;;;4901450;29;20945;-74
2023/01/13 02:27:52;;;;;;;9.43;9.13;;;12.20;99.90;;;;;;4900514;29;20486;-74
2023/01/13 02:33:33;;;;;;;10.77;10.37;;;12.20;99.90;;;;;;4900499;29;20486;-74
2023/01/13 02:36:04;;;;;;;9.73;9.43;;;12.20;99.90;;;;;;4902577;29;21026;-74
2023/01/13 02:38:34;;;;;;;10.30;9.90;;;12.10;99.90;;;;;;4897190;29;20447;-73
2023/01/13 02:44:06;;;;;;;10.87;10.20;;;12.20;99.90;;;;;;4892295;29;20973;-75
2023/01/13 02:46:39;;;;;;;9.70;9.40;;;12.20;99.90;;;;;;4892406;29;20798;-75
2023/01/13 02:49:10;;;;;;;9.60;9.20;;;12.10;99.90;;;;;;4892185;29;20451;-75
2023/01/13 02:51:38;;;;;;;9.50;9.10;;;12.10;99.90;;;;;;4892324;29;20763;-74
2023/01/13 02:54:08;;;;;;;10.50;9.90;;;12.20;99.90;;;;;;4892210;29;20832;-74
2023/01/13 02:56:42;;;;;;;9.93;9.53;;;12.20;99.90;;;;;;4892221;29;20509;-74
2023/01/13 02:59:10;;;;;;;10.03;9.50;;;12.10;99.90;;;;;;4892471;29;20451;-75
2023/01/13 03:01:38;;;;;;;9.70;9.17;;;12.10;99.90;;;;;;4892541;29;20467;-73
2023/01/13 03:04:12;;;;;;;10.30;9.90;;;12.00;99.90;;;;;;4892301;29;20836;-73
2023/01/13 03:06:48;;;;;;;11.73;11.10;;;12.10;99.90;;;;;;4892004;29;20471;-73
2023/01/13 03:09:22;;;;;;;10.10;9.70;;;12.00;99.90;;;;;;4892491;29;20459;-74
2023/01/13 03:11:56;;;;;;;9.60;9.30;;;11.70;99.90;;;;;;4892006;29;20455;-74
2023/01/13 03:14:32;;;;;;;10.40;10.00;;;11.90;99.90;;;;;;4893164;29;21029;-75
2023/01/13 03:17:11;;;;;;;10.47;10.07;;;11.90;99.90;;;;;;4895952;29;20933;-74
2023/01/13 03:19:44;;;;;;;10.30;9.90;;;11.90;99.90;;;;;;4895892;29;20495;-74
2023/01/13 03:22:18;;;;;;;10.03;9.73;;;11.80;99.90;;;;;;4895726;29;20451;-74
2023/01/13 03:24:50;;;;;;;9.67;9.27;;;11.80;99.90;;;;;;4895602;29;20671;-75
2023/01/13 03:27:24;;;;;;;10.20;9.80;;;11.90;99.90;;;;;;4895522;29;20458;-75
2023/01/13 03:29:57;;;;;;;10.93;10.63;;;12.00;99.90;;;;;;4895581;29;20466;-75
2023/01/13 03:32:28;;;;;;;10.23;9.93;;;12.00;99.90;;;;;;4895444;29;20596;-75
2023/01/13 03:35:00;;;;;;;10.17;9.77;;;12.00;99.90;;;;;;4895551;29;20528;-74
2023/01/13 03:37:32;;;;;;;10.33;9.93;;;12.00;99.90;;;;;;4895548;29;20482;-75
2023/01/13 03:40:02;;;;;;;10.67;10.27;;;12.00;99.90;;;;;;4895279;29;20825;-74
2023/01/13 03:42:32;;;;;;;11.17;10.50;;;12.00;99.90;;;;;;4895568;29;20459;-75
2023/01/13 03:45:03;;;;;;;10.53;10.10;;;11.90;99.90;;;;;;4895510;29;20470;-75
2023/01/13 03:47:36;;;;;;;11.27;10.87;;;11.90;99.90;;;;;;4895068;29;20686;-75
2023/01/13 03:50:08;;;;;;;11.03;10.30;;;11.90;99.90;;;;;;4895040;29;20961;-75
2023/01/13 03:52:38;;;;;;;11.20;10.60;;;11.90;99.90;;;;;;4895080;29;20451;-75
2023/01/13 03:55:09;;;;;;;11.27;10.73;;;11.80;99.90;;;;;;4894864;29;20886;-74
2023/01/13 03:57:41;;;;;;;10.10;9.70;;;11.80;99.90;;;;;;4895009;29;20985;-75
2023/01/13 04:00:12;;;;;;;10.10;9.77;;;11.80;99.90;;;;;;4894928;29;20464;-75
2023/01/13 04:02:49;;;;;;;10.50;10.20;;;11.70;99.90;;;;;;4894775;29;20458;-75
2023/01/13 04:05:17;;;;;;;10.60;10.23;;;11.70;99.90;;;;;;4895263;29;20455;-74
2023/01/13 04:07:53;;;;;;;10.90;10.50;;;11.70;99.90;;;;;;4895209;29;21013;-75
2023/01/13 04:10:23;;;;;;;10.90;10.50;;;11.60;99.90;;;;;;4894549;29;20491;-75
2023/01/13 04:13:03;;;;;;;10.70;9.90;;;11.60;99.90;;;;;;4894709;29;21192;-74
2023/01/13 04:15:34;;;;;;;10.23;9.90;;;11.60;99.90;;;;;;4894405;29;20517;-75
2023/01/13 04:18:23;;;;;;;9.80;9.50;;;11.60;99.90;;;;;;4894727;29;20965;-74
2023/01/13 04:20:52;;;;;;;10.63;10.23;;;11.50;99.90;;;;;;4894582;29;20549;-75
2023/01/13 04:23:21;;;;;;;11.30;10.83;;;11.50;99.90;;;;;;4894620;29;20462;-76
2023/01/13 04:25:48;;;;;;;11.17;10.77;;;11.50;99.90;;;;;;4893924;29;20570;-75
2023/01/13 04:28:16;;;;;;;10.03;9.63;;;11.50;99.90;;;;;;4894466;29;20462;-75
2023/01/13 04:30:44;;;;;;;10.23;9.83;;;11.50;99.90;;;;;;4894625;29;20857;-74
2023/01/13 04:33:11;;;;;;;10.23;9.93;;;11.50;99.90;;;;;;4894706;29;20459;-74
2023/01/13 04:35:39;;;;;;;10.30;10.00;;;11.50;99.90;;;;;;4894146;29;20499;-74
2023/01/13 04:38:09;;;;;;;10.50;10.10;;;11.50;99.90;;;;;;4894301;29;20471;-74
2023/01/13 04:40:35;;;;;;;10.60;10.20;;;11.60;99.90;;;;;;4894409;29;20534;-74
2023/01/13 04:43:03;;;;;;;9.60;9.30;;;11.60;99.90;;;;;;4894087;29;20463;-74
2023/01/13 04:45:30;;;;;;;10.27;9.87;;;11.70;99.90;;;;;;4894483;29;20464;-74
2023/01/13 04:47:57;;;;;;;10.77;10.37;;;11.70;99.90;;;;;;4894384;29;20462;-74
2023/01/13 04:50:24;;;;;;;10.27;9.97;;;11.70;99.90;;;;;;4894047;29;20455;-75
2023/01/13 04:52:53;;;;;;;10.50;10.10;;;11.80;99.90;;;;;;4893996;29;20459;-74
2023/01/13 04:55:21;;;;;;;11.23;10.50;;;11.80;99.90;;;;;;4894020;29;20491;-75
2023/01/13 04:57:48;;;;;;;10.10;9.80;;;11.90;99.90;;;;;;4894277;29;20459;-75
2023/01/13 05:00:17;;;;;;;10.50;10.10;;;11.90;99.90;;;;;;4894243;29;20483;-75
2023/01/13 05:02:44;;;;;;;10.43;9.90;;;11.90;99.90;;;;;;4894234;29;20800;-75
2023/01/13 05:05:11;;;;;;;10.43;10.03;;;11.80;99.90;;;;;;4894589;29;20466;-75
2023/01/13 05:07:38;;;;;;;9.83;9.53;;;11.90;99.90;;;;;;4895229;29;20855;-75
2023/01/13 05:10:07;;;;;;;10.30;10.00;;;12.00;99.90;;;;;;4895213;29;20634;-75
2023/01/13 05:18:02;;;;;;;13.07;12.27;;;12.00;99.90;;;;;;4894873;29;20435;-74
2023/01/13 05:20:29;;;;;;;10.97;10.57;;;12.10;99.90;;;;;;4895087;29;20825;-75
2023/01/13 05:25:42;;;;;;;10.27;9.97;;;12.00;99.90;;;;;;4894994;29;20796;-75
2023/01/13 05:28:10;;;;;;;10.40;10.10;;;12.10;99.90;;;;;;4894824;29;20451;-75
2023/01/13 05:30:38;;;;;;;11.87;11.47;;;12.10;99.90;;;;;;4894691;29;20834;-76
2023/01/13 05:33:05;;;;;;;10.83;10.53;;;12.20;99.90;;;;;;4894688;29;20463;-76
2023/01/13 05:35:32;;;;;;;11.00;10.60;;;;;;;;;;4894257;29;20532;-75
2023/01/13 05:37:58;;;;;;;10.80;10.50;;;12.20;99.90;;;;;;4894181;29;20456;-75
2023/01/13 05:43:23;;;;;;;10.70;10.30;;;12.10;99.90;;;;;;4894598;29;20941;-76
2023/01/13 05:45:52;;;;;;;11.70;11.30;;;12.10;99.90;;;;;;4894422;29;21201;-75
2023/01/13 05:48:20;;;;;;;10.60;10.30;;;12.10;99.90;;;;;;4894328;29;20856;-75
2023/01/13 05:50:48;;;;;;;10.30;9.90;;;12.10;99.90;;;;;;4894191;29;20886;-75
2023/01/13 05:53:15;;;;;;;11.50;11.20;;;12.10;99.90;;;;;;4894384;29;20518;-75
2023/01/13 05:55:43;;;;;;;10.97;10.57;;;12.00;99.90;;;;;;4894385;29;20502;-75
2023/01/13 05:58:12;;;;;;;10.87;10.57;;;11.90;99.90;;;;;;4899917;29;20465;-74
2023/01/13 06:00:39;;;;;;;10.80;10.50;;;11.90;99.90;;;;;;4912984;29;20450;-74
2023/01/13 06:03:06;;;;;;;10.60;10.30;;;11.90;99.90;;;;;;4913084;29;20461;-75
2023/01/13 06:05:34;;;;;;;11.20;10.80;;;11.80;99.90;;;;;;4913054;29;20455;-74
2023/01/13 06:08:02;;;;;;;11.13;10.73;;;11.70;99.90;;;;;;4913160;29;20525;-75
2023/01/13 06:10:29;;;;;;;11.00;10.50;;;11.70;99.90;;;;;;4913119;29;20457;-75
2023/01/13 06:12:56;;;;;;;11.00;10.70;;;11.70;99.90;;;;;;4913240;29;20579;-75
2023/01/13 06:15:25;;;;;;;10.87;10.57;;;11.70;99.90;;;;;;4912738;29;20605;-75
2023/01/13 06:17:52;;;;;;;11.80;11.40;;;11.80;99.90;;;;;;4896052;29;20462;-75
2023/01/13 06:20:19;;;;;;;11.47;11.07;;;11.80;99.90;;;;;;4893987;29;20459;-74
2023/01/13 06:22:48;;;;;;;10.80;10.50;;;11.90;99.90;;;;;;4894009;29;20454;-75
2023/01/13 06:25:22;;;;;;;10.43;10.10;;;12.00;99.90;;;;;;4894146;29;20554;-76
2023/01/13 06:27:49;;;;;;;10.83;10.43;;;12.00;99.90;;;;;;4894028;29;20482;-75
2023/01/13 06:30:16;;;;;;;11.57;11.17;;;12.10;99.90;;;;;;4894013;29;20463;-75
2023/01/13 06:32:48;;;;;;;10.93;10.53;;;12.10;99.90;;;;;;4894163;29;20550;-75
2023/01/13 06:35:18;;;;;;;11.27;10.87;;;12.10;99.90;;;;;;4894165;29;20490;-75
2023/01/13 06:37:48;;;;;;;11.70;11.30;;;12.20;99.90;;;;;;4894134;29;20942;-74
2023/01/13 06:40:15;;;;;;;11.33;10.90;;;12.20;99.90;;;;;;4893958;29;20530;-74
2023/01/13 06:45:28;;;;;;;11.80;11.40;;;12.20;99.90;;;;;;4894253;29;20435;-74
2023/01/13 06:47:58;;;;;;;10.87;10.57;;;12.20;99.90;;;;;;4893962;29;20812;-74
2023/01/13 06:50:25;;;;;;;10.37;10.07;;;12.20;99.90;;;;;;4896810;29;20459;-74
2023/01/13 06:52:51;;;;;;;10.67;10.37;;;12.20;99.90;;;;;;4897635;29;20589;-75
2023/01/13 06:55:18;;;;;;;11.10;10.70;;;12.00;99.90;;;;;;4897572;29;20498;-74
2023/01/13 06:57:49;;;;;;;11.30;10.53;;;11.90;99.90;;;;;;4897521;29;20459;-74
2023/01/13 07:00:16;;;;;;;11.60;11.10;;;11.90;99.90;;;;;;4897450;29;20798;-75
2023/01/13 07:02:43;;;;;;;11.40;10.90;;;11.90;99.90;;;;;;4897540;29;20459;-75
2023/01/13 07:05:11;;;;;;;11.27;10.87;;;11.90;99.90;;;;;;4897504;29;20475;-75
2023/01/13 07:07:39;;;;;;;11.77;10.73;;;11.90;99.90;;;;;;4897226;29;20517;-75
2023/01/13 07:10:08;;;;;;;10.27;9.97;;;11.90;99.90;;;;;;4897152;29;20458;-75
2023/01/13 07:15:17;;;;;;;9.87;9.57;;;12.00;99.90;;;;;;4897082;29;20776;-75
2023/01/13 07:15:22;;;;;;;11.70;11.03;;;12.00;99.90;;;;;;4896833;29;20491;-75
2023/01/13 07:17:48;;;;;;;11.20;10.90;;;12.00;99.90;;;;;;4896963;29;20601;-75
2023/01/13 07:20:17;;;;;;;10.60;10.10;;;12.00;99.90;;;;;;4897085;29;20211;-75
2023/01/13 07:22:44;;;;;;;11.20;10.70;;;11.90;99.90;;;;;;4897117;29;20946;-75
2023/01/13 07:25:11;;;;;;;10.90;10.50;;;11.90;99.90;;;;;;4897124;29;20455;-75
2023/01/13 07:27:38;;;;;;;10.70;10.40;;;11.90;99.90;;;;;;4896809;29;20953;-75
2023/01/13 07:30:06;;;;;;;12.00;11.20;;;11.80;99.90;;;;;;4896864;29;20800;-74
2023/01/13 07:32:33;;;;;;;10.80;10.50;;;11.80;99.90;;;;;;4896791;29;20836;-74
2023/01/13 07:35:04;;;;;;;11.77;11.27;;;11.80;99.90;;;;;;4896756;29;20513;-74
2023/01/13 07:37:32;;;;;;;10.80;10.50;;;11.80;99.90;;;;;;4896679;29;20558;-73
2023/01/13 07:39:59;;;;;;;11.20;10.90;;;11.80;99.90;;;;;;4896787;29;20466;-74
2023/01/13 07:45:11;;;;;;;11.67;11.17;;;11.90;99.90;;;;;;4896698;29;20454;-73
2023/01/13 07:47:38;;;;;;;9.30;9.00;;;12.00;99.90;;;;;;4896750;29;20554;-74
2023/01/13 07:50:05;;;;;;;10.40;10.10;;;12.00;99.90;;;;;;4896529;29;20473;-73
2023/01/13 07:52:33;;;;;;;12.40;11.63;;;12.10;99.90;;;;;;4901430;29;20459;-73
2023/01/13 07:55:00;;;;;;;20.27;17.87;;;12.00;99.90;;;;;;4913818;29;20490;-73
2023/01/13 07:57:27;;;;;;;12.70;12.00;;;11.90;99.90;;;;;;4905189;29;20447;-72
2023/01/13 07:59:53;;;;;;;10.77;10.27;;;11.90;99.90;;;;;;4908065;29;20456;-75
2023/01/13 08:02:20;;;;;;;12.27;11.37;;;11.90;99.90;;;;;;4908175;29;20849;-74
2023/01/13 08:04:47;;;;;;;11.13;10.73;;;11.80;99.90;;;;;;4898088;29;20482;-74
2023/01/13 08:07:13;;;;;;;10.77;10.27;;;11.90;99.90;;;;;;4896933;29;20463;-75
2023/01/13 08:09:41;;;;;;;11.07;10.67;;;12.00;99.90;;;;;;4896579;29;20547;-75
2023/01/13 08:14:53;;;;;;;11.10;10.70;;;12.20;99.90;;;;;;4896109;29;20498;-76
2023/01/13 08:17:19;;;;;;;11.10;10.70;;;12.30;99.90;;;;;;4896214;29;20455;-75
2023/01/13 08:19:46;;;;;;;12.27;11.67;;;12.50;99.90;;;;;;4896132;29;20491;-76
2023/01/13 08:22:13;;;;;;;12.33;11.53;;;12.40;99.90;;;;;;4896399;29;20810;-76
2023/01/13 08:24:40;;;;;;;11.00;10.50;;;12.20;99.90;;;;;;4895891;29;20455;-76
2023/01/13 08:27:08;;;;;;;10.10;9.70;;;12.10;99.90;;;;;;4895931;29;20459;-77
2023/01/13 08:29:34;;;;;;;10.50;10.10;;;12.20;99.90;;;;;;4896208;29;20459;-78
2023/01/13 08:32:01;;;;;;;10.80;10.50;;;12.40;99.90;;;;;;4895858;29;20462;-81
2023/01/13 08:34:28;;;;;;;10.90;10.60;;;12.50;99.90;;;;;;4896169;29;20502;-78
2023/01/13 08:36:54;;;;;;;10.33;9.93;;;12.50;99.90;;;;;;4895928;29;20483;-76
2023/01/13 08:39:23;;;;;;;12.47;12.07;;;12.40;99.90;;;;;;4895460;29;20590;-74
2023/01/13 08:41:55;;;;;;;16.27;15.57;;;12.30;99.90;;;;;;4895429;29;21025;-74
2023/01/13 08:44:25;;;;;;;24.27;23.37;;;12.00;99.90;;;;;;4895639;29;20466;-72
2023/01/13 08:46:51;;;;;;;31.60;30.17;;;11.70;99.90;;;;;;4895498;29;20459;-71
2023/01/13 08:49:18;;;;;;;31.47;29.77;;;11.50;99.90;;;;;;4894988;29;20462;-71
2023/01/13 08:51:45;;;;;;;31.60;30.00;;;11.30;99.90;;;;;;4905569;29;20463;-71
2023/01/13 08:54:12;;;;;;;32.80;31.10;;;11.10;99.90;;;;;;4901473;29;20538;-72
2023/01/13 08:56:40;;;;;;;33.00;31.50;;;11.10;99.90;;;;;;4914124;29;20497;-73
2023/01/13 08:59:08;;;;;;;33.03;31.53;;;11.00;99.90;;;;;;4902589;29;20970;-73
2023/01/13 09:01:38;;;;;;;31.87;30.37;;;11.10;99.90;;;;;;4896406;29;20996;-74
2023/01/13 09:04:05;;;;;;;33.20;31.60;;;11.20;99.90;;;;;;4905678;29;20455;-74
2023/01/13 09:06:31;;;;;;;33.73;32.13;;;11.30;99.90;;;;;;4902348;29;20458;-76
2023/01/13 09:08:58;;;;;;;35.37;33.67;;;11.30;99.90;;;;;;4895278;29;20463;-74
2023/01/13 09:14:17;;;;;;;34.20;32.27;;;11.10;99.90;;;;;;4913153;29;21004;-73
2023/01/13 09:16:45;;;;;;;34.53;32.83;;;11.10;99.90;;;;;;4913806;29;21039;-72
2023/01/13 09:19:12;;;;;;;35.70;33.90;;;11.00;99.90;;;;;;4903434;29;20461;-73
2023/01/13 09:21:39;;;;;;;35.13;33.43;;;10.90;99.90;;;;;;4893899;29;20464;-74
2023/01/13 09:24:06;;;;;;;34.80;33.10;;;10.50;99.90;;;;;;4894801;29;20459;-73
2023/01/13 09:26:33;;;;;;;37.43;35.53;;;10.30;99.90;;;;;;4897396;29;20451;-73
2023/01/13 09:29:00;;;;;;;35.67;33.70;;;10.20;99.90;;;;;;4913672;29;20459;-73
2023/01/13 09:31:27;;;;;;;34.20;32.60;;;10.10;99.90;;;;;;4913967;29;20556;-75
2023/01/13 09:36:39;;;;;;;33.80;32.00;;;9.80;99.90;;;;;;4900001;29;20522;-76
2023/01/13 09:39:06;;;;;;;36.20;34.40;;;9.80;99.90;;;;;;4894574;29;20467;-77
2023/01/13 09:44:25;;;;;;;32.80;31.20;;;9.90;99.90;;;;;;4891702;29;20527;-76
2023/01/13 09:46:56;;;;;;;31.93;30.43;;;10.10;99.90;;;;;;4894759;29;20221;-75
2023/01/13 09:49:34;;;;;;;33.40;31.90;;;10.00;99.90;;;;;;4894905;29;20554;-75
2023/01/13 09:52:04;;;;;;;32.10;30.70;;;10.10;99.90;;;;;;4914373;29;20485;-74
2023/01/13 09:54:34;;;;;;;32.07;30.67;;;10.20;99.90;;;;;;4932584;29;20552;-76
2023/01/13 09:57:01;;;;;;;32.30;30.90;;;10.30;99.90;;;;;;4932611;29;20493;-75
2023/01/13 09:59:35;;;;;;;31.93;30.63;;;10.30;99.90;;;;;;4932591;29;20959;-75
2023/01/13 10:02:18;;;;;;;30.30;29.00;;;10.30;99.90;;;;;;4932530;29;20461;-75
2023/01/13 10:05:02;;;;;;;31.50;30.20;;;10.40;99.90;;;;;;4932401;29;20843;-75
2023/01/13 10:07:32;;;;;;;30.10;28.60;;;10.30;99.90;;;;;;4932365;29;20460;-75
2023/01/13 10:10:01;;;;;;;28.53;27.33;;;10.30;99.90;;;;;;4924858;29;20454;-75
2023/01/13 10:20:33;;;;;;;26.73;25.73;;;10.30;99.90;;;;;;5346292;23;20509;-74
2023/01/13 10:23:12;;;;;;;26.40;25.30;;;10.30;99.90;;;;;;5001249;28;20480;-72
2023/01/13 10:25:55;;;;;;;27.00;25.80;;;10.20;99.90;;;;;;4989277;28;20445;-73
2023/01/13 10:28:24;;;;;;;26.50;25.50;;;10.20;99.90;;;;;;4989317;28;20554;-72
2023/01/13 10:30:50;;;;;;;25.33;24.43;;;10.30;99.90;;;;;;4995472;28;20475;-73
2023/01/13 10:33:19;;;;;;;25.20;24.30;;;10.30;99.90;;;;;;5009054;28;20454;-71
2023/01/13 10:35:53;;;;;;;27.57;26.30;;;10.40;99.90;;;;;;5009117;28;20590;-72
2023/01/13 10:38:23;;;;;;;29.27;28.07;;;10.70;99.90;;;;;;4992237;28;20490;-72
2023/01/13 10:40:52;;;;;;;27.23;26.23;;;11.00;99.90;;;;;;5006863;28;20998;-73
2023/01/13 10:43:57;;;;;;;22.60;21.80;;;11.60;99.90;;;;;;5008360;28;20457;-72
2023/01/13 10:46:24;;;;;;;18.80;18.20;;;12.30;99.90;;;;;;4994002;28;20485;-72
2023/01/13 10:48:54;;;;;;;18.90;18.20;;;12.90;99.90;;;;;;4994931;28;20980;-73
2023/01/13 10:51:25;;;;;;;18.00;17.23;;;12.90;99.90;;;;;;4996294;28;20462;-73
2023/01/13 10:53:54;;;;;;;15.87;15.23;;;12.60;99.90;;;;;;4990662;28;20478;-73
2023/01/13 10:56:23;;;;;;;15.80;15.00;;;12.60;99.90;;;;;;5003665;28;20493;-73
2023/01/13 10:58:50;;;;;;;13.90;13.37;;;12.40;99.90;;;;;;5008745;28;20804;-74
2023/01/13 11:01:25;;;;;;;15.63;15.13;;;12.10;99.90;;;;;;5008498;28;20939;-73
2023/01/13 11:03:53;;;;;;;21.30;20.43;;;12.00;99.90;;;;;;5008225;28;20457;-72
2023/01/13 11:06:23;;;;;;;23.43;22.40;;;11.70;99.90;;;;;;5006577;28;20465;-72
2023/01/13 11:08:54;;;;;;;27.03;25.93;;;11.30;99.90;;;;;;5004477;28;20445;-72
2023/01/13 11:11:39;;;;;;;28.73;27.43;;;11.00;99.90;;;;;;4991372;28;20466;-72
2023/01/13 11:14:35;;;;;;;29.57;28.27;;;10.40;99.90;;;;;;4989059;28;21160;-73
2023/01/13 11:17:08;;;;;;;30.00;28.70;;;10.30;99.90;;;;;;4989347;28;20522;-72
2023/01/13 11:19:38;;;;;;;28.63;27.43;;;10.20;99.90;;;;;;4990191;28;20494;-73
2023/01/13 11:22:11;;;;;;;27.33;26.23;;;10.00;99.90;;;;;;4991068;28;20454;-73
2023/01/13 11:24:42;;;;;;;27.93;26.83;;;9.80;99.90;;;;;;4990102;28;20450;-74
2023/01/13 11:27:15;;;;;;;29.47;28.17;;;9.70;99.90;;;;;;4989775;28;20450;-74
2023/01/13 11:29:54;;;;;;;27.60;26.20;;;9.60;99.90;;;;;;4990118;28;20842;-73
2023/01/13 11:32:24;;;;;;;27.37;26.37;;;9.60;99.90;;;;;;4989935;28;20446;-74
2023/01/13 11:34:54;;;;;;;26.33;25.33;;;9.50;99.90;;;;;;4988792;28;20454;-74
2023/01/13 11:37:25;;;;;;;28.60;26.67;;;9.50;99.90;;;;;;4991439;28;20872;-73
2023/01/13 11:40:00;;;;;;;29.77;28.47;;;9.50;99.90;;;;;;4992287;28;20981;-73
2023/01/13 11:42:32;;;;;;;29.53;28.33;;;9.50;99.90;;;;;;4992077;28;20445;-73
2023/01/13 11:45:06;;;;;;;26.53;25.43;;;9.40;99.90;;;;;;4991701;28;20455;-76
2023/01/13 11:47:34;;;;;;;27.60;26.50;;;9.30;99.90;;;;;;4991779;28;20447;-76
2023/01/13 11:50:02;;;;;;;29.23;27.73;;;9.30;99.90;;;;;;4991903;28;20463;-76
2023/01/13 11:52:39;;;;;;;28.10;27.00;;;9.30;99.90;;;;;;4992201;28;20463;-76
2023/01/13 11:55:19;;;;;;;25.97;24.87;;;9.30;99.90;;;;;;4992338;28;20505;-76
2023/01/13 11:58:19;;;;;;;27.90;26.60;;;9.30;99.90;;;;;;4991806;28;20545;-76
2023/01/13 12:01:05;;;;;;;25.80;24.50;;;9.30;99.90;;;;;;4991817;28;20504;-78
2023/01/13 12:03:35;;;;;;;23.47;22.57;;;9.50;99.90;;;;;;4992118;28;20566;-78
2023/01/13 12:06:13;;;;;;;23.67;22.87;;;9.50;99.90;;;;;;4992181;28;20450;-77
2023/01/13 12:09:01;;;;;;;22.40;21.60;;;9.50;99.90;;;;;;4991935;28;20442;-77
2023/01/13 12:12:17;;;;;;;22.07;21.00;;;9.60;99.90;;;;;;4981759;28;20874;-77
2023/01/13 12:14:27;;;;;;;19.20;18.50;;;9.70;99.90;;;;;;4991850;28;20501;-77
2023/01/13 12:16:54;;;;;;;14.37;13.70;;;10.10;99.90;;;;;;4991674;28;21015;-77
2023/01/13 12:19:26;;;;;;;14.70;14.10;;;10.20;99.90;;;;;;4991531;28;20490;-77
2023/01/13 12:25:20;;;;;;;12.27;11.87;;;10.20;99.90;;;;;;4990033;28;20689;-77
2023/01/13 12:27:53;;;;;;;13.07;12.33;;;10.30;99.90;;;;;;4991529;28;20643;-78
2023/01/13 12:30:42;;;;;;;11.33;10.93;;;10.80;99.90;;;;;;4995221;28;20450;-79
2023/01/13 12:33:18;;;;;;;10.10;9.70;;;10.90;99.90;;;;;;5010161;28;20450;-79
2023/01/13 12:35:52;;;;;;;10.67;10.37;;;11.60;99.90;;;;;;5010469;28;20460;-78
2023/01/13 12:38:27;;;;;;;9.57;9.27;;;12.30;99.90;;;;;;5010944;28;20446;-77
2023/01/13 12:41:04;;;;;;;11.03;10.40;;;12.90;99.90;;;;;;5010758;28;20942;-77
2023/01/13 12:46:55;;;;;;;14.83;13.40;;;12.90;99.90;;;;;;5010587;28;20421;-77
2023/01/13 12:49:24;;;;;;;12.10;11.60;;;12.80;99.90;;;;;;5010693;28;20826;-77
2023/01/13 12:52:22;;;;;;;11.70;11.20;;;12.90;99.90;;;;;;5010767;28;20449;-78
2023/01/13 12:55:09;;;;;;;11.67;10.97;;;12.30;99.90;;;;;;5010930;28;20458;-77
2023/01/13 12:57:38;;;;;;;11.07;10.67;;;12.20;99.90;;;;;;5010733;28;20930;-77
2023/01/13 13:00:16;;;;;;;11.27;10.77;;;12.00;99.90;;;;;;5010644;28;20458;-77
2023/01/13 13:03:03;;;;;;;10.70;10.17;;;11.60;99.90;;;;;;5010462;28;20539;-77
2023/01/13 13:05:46;;;;;;;13.13;11.73;;;11.30;99.90;;;;;;5011151;28;20469;-77
2023/01/13 13:08:21;;;;;;;11.63;10.97;;;11.20;99.90;;;;;;5011450;28;20450;-77
2023/01/13 13:11:01;;;;;;;11.77;11.13;;;11.20;99.90;;;;;;5011227;28;20459;-75
2023/01/13 13:13:44;;;;;;;12.30;11.40;;;11.20;99.90;;;;;;5009601;28;21351;-77
2023/01/13 13:16:59;;;;;;;12.63;11.63;;;11.10;99.90;;;;;;5010102;28;20813;-78
2023/01/13 13:19:43;;;;;;;11.97;10.90;;;10.90;99.90;;;;;;5005254;28;20493;-78
2023/01/13 13:22:41;;;;;;;10.77;10.20;;;11.00;99.90;;;;;;4990344;28;20501;-77
2023/01/13 13:25:26;;;;;;;11.07;10.47;;;11.00;99.90;;;;;;4999922;28;20497;-77
2023/01/13 13:28:19;;;;;;;11.90;11.30;;;11.00;99.90;;;;;;4999816;28;20493;-79
2023/01/13 13:31:05;;;;;;;12.27;11.60;;;11.00;99.90;;;;;;4998106;28;20528;-78
2023/01/13 13:33:47;;;;;;;11.20;10.67;;;11.00;99.90;;;;;;4990698;28;20521;-74
2023/01/13 13:36:35;;;;;;;11.90;11.20;;;11.00;99.90;;;;;;4990427;28;20501;-74
2023/01/13 13:47:42;;;;;;;12.73;11.23;;;11.00;99.90;;;;;;4990099;28;20430;-74
2023/01/13 13:50:14;;;;;;;12.40;11.60;;;11.10;99.90;;;;;;4990734;28;20459;-74
2023/01/13 13:52:44;;;;;;;11.40;10.70;;;11.10;99.90;;;;;;4999268;28;20816;-75
2023/01/13 13:55:17;;;;;;;10.43;10.03;;;11.20;99.90;;;;;;5009974;28;20546;-74